createdAt,value
2017-01-19T00:00:20.391Z,1031.4
2017-01-19T00:01:02.111Z,1031.39
2017-01-19T00:01:43.796Z,1031.4
2017-01-19T00:02:25.454Z,1031.38
2017-01-19T00:03:07.005Z,1031.39
2017-01-19T00:03:48.773Z,1031.4
2017-01-19T00:06:09.573Z,1031.38
2017-01-19T00:06:51.310Z,1031.38
2017-01-19T00:07:33.065Z,1031.42
2017-01-19T00:08:14.779Z,1031.36
2017-01-19T00:08:56.541Z,1031.42
2017-01-19T00:09:38.213Z,1031.41
2017-01-19T00:10:19.974Z,1031.39
2017-01-19T00:11:01.651Z,1031.41
2017-01-19T00:11:43.388Z,1031.39
2017-01-19T00:12:25.075Z,1031.36
2017-01-19T00:13:06.816Z,1031.37
2017-01-19T00:13:48.531Z,1031.33
2017-01-19T00:14:30.109Z,1031.27
2017-01-19T00:15:11.818Z,1031.35
2017-01-19T00:15:53.544Z,1031.31
2017-01-19T00:16:35.184Z,1031.34
2017-01-19T00:17:16.935Z,1031.36
2017-01-19T00:17:58.625Z,1031.34
2017-01-19T00:18:40.377Z,1031.36
2017-01-19T00:21:00.992Z,1031.35
2017-01-19T00:21:42.679Z,1031.37
2017-01-19T00:22:24.416Z,1031.36
2017-01-19T00:23:06.086Z,1031.34
2017-01-19T00:23:47.774Z,1031.35
2017-01-19T00:24:29.482Z,1031.35
2017-01-19T00:25:11.133Z,1031.39
2017-01-19T00:27:26.359Z,1031.37
2017-01-19T00:28:08.091Z,1031.36
2017-01-19T00:28:49.809Z,1031.35
2017-01-19T00:29:31.582Z,1031.38
2017-01-19T00:30:13.302Z,1031.37
2017-01-19T00:30:54.981Z,1031.39
2017-01-19T00:31:36.596Z,1031.36
2017-01-19T00:32:18.317Z,1031.36
2017-01-19T00:33:00.060Z,1031.37
2017-01-19T00:33:41.893Z,1031.38
2017-01-19T00:34:23.670Z,1031.37
2017-01-19T00:35:05.417Z,1031.38
2017-01-19T00:37:26.015Z,1031.4
2017-01-19T00:38:07.724Z,1031.41
2017-01-19T00:38:49.458Z,1031.41
2017-01-19T00:39:31.185Z,1031.4
2017-01-19T00:42:02.227Z,1031.39
2017-01-19T00:44:33.333Z,1031.37
2017-01-19T00:45:15.053Z,1031.34
2017-01-19T00:45:56.812Z,1031.34
2017-01-19T00:46:38.558Z,1031.31
2017-01-19T00:47:20.284Z,1031.35
2017-01-19T00:48:01.987Z,1031.34
2017-01-19T00:48:43.687Z,1031.33
2017-01-19T00:49:25.430Z,1031.37
2017-01-19T00:50:07.152Z,1031.39
2017-01-19T00:50:48.933Z,1031.38
2017-01-19T00:51:30.459Z,1031.4
2017-01-19T00:52:12.257Z,1031.41
2017-01-19T00:52:53.972Z,1031.43
2017-01-19T00:53:35.639Z,1031.47
2017-01-19T00:54:17.364Z,1031.45
2017-01-19T00:54:58.916Z,1031.42
2017-01-19T00:56:58.971Z,1031.47
2017-01-19T00:57:40.330Z,1031.46
2017-01-19T00:58:22.161Z,1031.48
2017-01-19T00:59:03.829Z,1031.46
2017-01-19T00:59:45.517Z,1031.47
2017-01-19T01:00:27.153Z,1031.48
2017-01-19T01:01:08.841Z,1031.5
2017-01-19T01:01:50.325Z,1031.51
2017-01-19T01:02:32.023Z,1031.52
2017-01-19T01:04:31.661Z,1031.47
2017-01-19T01:05:13.183Z,1031.5
2017-01-19T01:05:54.897Z,1031.48
2017-01-19T01:06:36.416Z,1031.49
2017-01-19T01:07:18.008Z,1031.49
2017-01-19T01:07:59.708Z,1031.45
2017-01-19T01:08:40.952Z,1031.47
2017-01-19T01:12:14.600Z,1031.5
2017-01-19T01:14:14.489Z,1031.48
2017-01-19T01:14:56.212Z,1031.48
2017-01-19T01:15:37.865Z,1031.52
2017-01-19T01:16:19.572Z,1031.51
2017-01-19T01:17:01.283Z,1031.51
2017-01-19T01:17:42.878Z,1031.53
2017-01-19T01:18:24.595Z,1031.52
2017-01-19T01:19:06.191Z,1031.54
2017-01-19T01:19:48.052Z,1031.57
2017-01-19T01:20:29.810Z,1031.54
2017-01-19T01:21:11.512Z,1031.52
2017-01-19T01:21:53.227Z,1031.53
2017-01-19T01:22:34.945Z,1031.57
2017-01-19T01:24:29.689Z,1031.55
2017-01-19T01:26:45.008Z,1031.55
2017-01-19T01:29:05.698Z,1031.57
2017-01-19T01:29:47.470Z,1031.56
2017-01-19T01:30:29.229Z,1031.58
2017-01-19T01:31:10.835Z,1031.59
2017-01-19T01:31:52.437Z,1031.6
2017-01-19T01:32:34.120Z,1031.57
2017-01-19T01:33:15.744Z,1031.57
2017-01-19T01:33:57.369Z,1031.53
2017-01-19T01:34:39.057Z,1031.54
2017-01-19T01:36:59.687Z,1031.51
2017-01-19T01:37:41.184Z,1031.48
2017-01-19T01:38:22.890Z,1031.48
2017-01-19T01:39:04.520Z,1031.46
2017-01-19T01:39:46.173Z,1031.44
2017-01-19T01:42:17.082Z,1031.41
2017-01-19T01:44:37.877Z,1031.39
2017-01-19T01:46:53.251Z,1031.46
2017-01-19T01:47:34.862Z,1031.45
2017-01-19T01:49:29.625Z,1031.47
2017-01-19T01:50:11.418Z,1031.44
2017-01-19T01:50:53.162Z,1031.48
2017-01-19T01:51:34.809Z,1031.45
2017-01-19T01:52:16.458Z,1031.5
2017-01-19T01:54:16.466Z,1031.47
2017-01-19T01:54:58.107Z,1031.44
2017-01-19T01:57:18.782Z,1031.43
2017-01-19T01:59:13.448Z,1031.44
2017-01-19T01:59:55.005Z,1031.42
2017-01-19T02:00:35.539Z,1031.41
2017-01-19T02:01:16.071Z,1031.42
2017-01-19T02:01:56.643Z,1031.38
2017-01-19T02:02:37.164Z,1031.33
2017-01-19T02:03:17.692Z,1031.35
2017-01-19T02:03:58.214Z,1031.36
2017-01-19T02:04:38.755Z,1031.36
2017-01-19T02:05:19.270Z,1031.34
2017-01-19T02:05:59.800Z,1031.34
2017-01-19T02:06:40.334Z,1031.36
2017-01-19T02:07:20.850Z,1031.32
2017-01-19T02:08:01.377Z,1031.32
2017-01-19T02:08:41.913Z,1031.28
2017-01-19T02:09:22.436Z,1031.27
2017-01-19T02:10:02.962Z,1031.21
2017-01-19T02:10:43.482Z,1031.25
2017-01-19T02:11:24.012Z,1031.26
2017-01-19T02:12:04.542Z,1031.27
2017-01-19T02:12:45.070Z,1031.27
2017-01-19T02:13:25.600Z,1031.25
2017-01-19T02:14:06.133Z,1031.27
2017-01-19T02:14:46.665Z,1031.26
2017-01-19T02:15:27.204Z,1031.26
2017-01-19T02:16:07.765Z,1031.27
2017-01-19T02:16:48.298Z,1031.26
2017-01-19T02:17:28.823Z,1031.29
2017-01-19T02:18:09.353Z,1031.28
2017-01-19T02:18:49.882Z,1031.27
2017-01-19T02:19:30.416Z,1031.28
2017-01-19T02:20:10.940Z,1031.3
2017-01-19T02:20:51.473Z,1031.33
2017-01-19T02:21:31.999Z,1031.32
2017-01-19T02:22:12.530Z,1031.31
2017-01-19T02:22:53.059Z,1031.33
2017-01-19T02:23:33.593Z,1031.31
2017-01-19T02:24:14.124Z,1031.26
2017-01-19T02:24:54.654Z,1031.28
2017-01-19T02:25:35.182Z,1031.3
2017-01-19T02:26:15.716Z,1031.3
2017-01-19T02:26:56.237Z,1031.3
2017-01-19T02:27:36.779Z,1031.32
2017-01-19T02:28:17.313Z,1031.26
2017-01-19T02:28:57.834Z,1031.31
2017-01-19T02:29:38.370Z,1031.31
2017-01-19T02:30:18.904Z,1031.34
2017-01-19T02:30:59.435Z,1031.34
2017-01-19T02:31:39.966Z,1031.36
2017-01-19T02:32:20.502Z,1031.33
2017-01-19T02:33:01.034Z,1031.37
2017-01-19T02:33:41.566Z,1031.37
2017-01-19T02:34:22.092Z,1031.41
2017-01-19T02:35:02.617Z,1031.44
2017-01-19T02:35:43.152Z,1031.42
2017-01-19T02:36:23.683Z,1031.42
2017-01-19T02:37:04.217Z,1031.41
2017-01-19T02:37:44.739Z,1031.47
2017-01-19T02:38:25.269Z,1031.39
2017-01-19T02:39:05.797Z,1031.42
2017-01-19T02:39:46.335Z,1031.42
2017-01-19T02:40:26.868Z,1031.41
2017-01-19T02:41:07.394Z,1031.42
2017-01-19T02:41:47.932Z,1031.37
2017-01-19T02:42:28.445Z,1031.35
2017-01-19T02:43:08.981Z,1031.36
2017-01-19T02:43:49.510Z,1031.37
2017-01-19T02:44:30.036Z,1031.38
2017-01-19T02:45:10.565Z,1031.35
2017-01-19T02:45:51.095Z,1031.32
2017-01-19T02:46:31.621Z,1031.32
2017-01-19T02:47:12.146Z,1031.3
2017-01-19T02:47:52.671Z,1031.32
2017-01-19T02:48:33.210Z,1031.28
2017-01-19T02:49:13.743Z,1031.29
2017-01-19T02:49:54.270Z,1031.29
2017-01-19T02:50:34.795Z,1031.29
2017-01-19T02:51:15.324Z,1031.27
2017-01-19T02:51:55.853Z,1031.27
2017-01-19T02:52:36.389Z,1031.25
2017-01-19T02:53:16.920Z,1031.25
2017-01-19T02:53:57.449Z,1031.24
2017-01-19T02:54:37.974Z,1031.22
2017-01-19T02:55:18.501Z,1031.24
2017-01-19T02:55:59.040Z,1031.24
2017-01-19T02:56:39.566Z,1031.18
2017-01-19T02:57:20.097Z,1031.18
2017-01-19T02:58:00.627Z,1031.24
2017-01-19T02:58:41.155Z,1031.2
2017-01-19T02:59:21.686Z,1031.18
2017-01-19T03:00:02.211Z,1031.23
2017-01-19T03:00:42.731Z,1031.2
2017-01-19T03:01:23.258Z,1031.23
2017-01-19T03:02:03.794Z,1031.25
2017-01-19T03:02:44.325Z,1031.28
2017-01-19T03:03:24.846Z,1031.22
2017-01-19T03:04:05.418Z,1031.23
2017-01-19T03:04:45.953Z,1031.28
2017-01-19T03:05:26.482Z,1031.28
2017-01-19T03:06:07.009Z,1031.28
2017-01-19T03:06:47.538Z,1031.29
2017-01-19T03:07:28.072Z,1031.29
2017-01-19T03:08:08.595Z,1031.25
2017-01-19T03:08:49.131Z,1031.26
2017-01-19T03:09:29.661Z,1031.27
2017-01-19T03:10:10.191Z,1031.29
2017-01-19T03:10:50.717Z,1031.26
2017-01-19T03:11:31.249Z,1031.26
2017-01-19T03:12:11.781Z,1031.28
2017-01-19T03:12:52.312Z,1031.3
2017-01-19T03:13:32.837Z,1031.26
2017-01-19T03:14:13.366Z,1031.25
2017-01-19T03:14:53.893Z,1031.3
2017-01-19T03:15:34.423Z,1031.26
2017-01-19T03:16:14.957Z,1031.25
2017-01-19T03:16:55.477Z,1031.28
2017-01-19T03:17:36.030Z,1031.24
2017-01-19T03:18:16.558Z,1031.27
2017-01-19T03:18:57.087Z,1031.29
2017-01-19T03:19:37.611Z,1031.23
2017-01-19T03:20:18.145Z,1031.19
2017-01-19T03:20:58.673Z,1031.22
2017-01-19T03:21:39.203Z,1031.21
2017-01-19T03:22:19.732Z,1031.24
2017-01-19T03:23:00.268Z,1031.25
2017-01-19T03:23:40.790Z,1031.24
2017-01-19T03:24:21.317Z,1031.29
2017-01-19T03:25:01.849Z,1031.27
2017-01-19T03:25:42.377Z,1031.31
2017-01-19T03:26:22.913Z,1031.32
2017-01-19T03:27:03.433Z,1031.35
2017-01-19T03:27:43.970Z,1031.36
2017-01-19T03:28:24.498Z,1031.34
2017-01-19T03:29:05.026Z,1031.37
2017-01-19T03:29:45.558Z,1031.34
2017-01-19T03:30:26.089Z,1031.34
2017-01-19T03:31:06.619Z,1031.35
2017-01-19T03:31:47.146Z,1031.36
2017-01-19T03:32:27.674Z,1031.39
2017-01-19T03:33:08.206Z,1031.36
2017-01-19T03:33:48.730Z,1031.33
2017-01-19T03:34:29.256Z,1031.3
2017-01-19T03:35:09.792Z,1031.31
2017-01-19T03:35:50.323Z,1031.31
2017-01-19T03:36:30.847Z,1031.33
2017-01-19T03:37:11.380Z,1031.35
2017-01-19T03:37:51.915Z,1031.34
2017-01-19T03:38:32.444Z,1031.3
2017-01-19T03:39:12.978Z,1031.31
2017-01-19T03:39:53.509Z,1031.34
2017-01-19T03:40:34.037Z,1031.37
2017-01-19T03:41:14.566Z,1031.31
2017-01-19T03:41:55.103Z,1031.33
2017-01-19T03:42:35.634Z,1031.32
2017-01-19T03:43:16.163Z,1031.33
2017-01-19T03:43:56.690Z,1031.31
2017-01-19T03:44:37.222Z,1031.33
2017-01-19T03:45:17.754Z,1031.36
2017-01-19T03:45:58.284Z,1031.32
2017-01-19T03:46:38.820Z,1031.29
2017-01-19T03:47:19.342Z,1031.29
2017-01-19T03:47:59.887Z,1031.32
2017-01-19T03:48:40.401Z,1031.33
2017-01-19T03:49:20.936Z,1031.33
2017-01-19T03:50:01.467Z,1031.32
2017-01-19T03:50:41.992Z,1031.27
2017-01-19T03:51:22.517Z,1031.31
2017-01-19T03:52:03.066Z,1031.28
2017-01-19T03:52:43.599Z,1031.27
2017-01-19T03:53:24.130Z,1031.28
2017-01-19T03:54:04.658Z,1031.27
2017-01-19T03:54:45.188Z,1031.26
2017-01-19T03:55:25.719Z,1031.25
2017-01-19T03:56:06.247Z,1031.24
2017-01-19T03:56:46.776Z,1031.28
2017-01-19T03:57:27.298Z,1031.29
2017-01-19T03:58:07.831Z,1031.29
2017-01-19T03:58:48.355Z,1031.3
2017-01-19T03:59:28.888Z,1031.31
2017-01-19T04:00:09.419Z,1031.35
2017-01-19T04:00:49.947Z,1031.35
2017-01-19T04:01:30.470Z,1031.29
2017-01-19T04:02:11.000Z,1031.3
2017-01-19T04:02:51.526Z,1031.31
2017-01-19T04:03:32.048Z,1031.29
2017-01-19T04:04:12.574Z,1031.26
2017-01-19T04:04:53.110Z,1031.28
2017-01-19T04:05:33.644Z,1031.32
2017-01-19T04:06:14.172Z,1031.3
2017-01-19T04:06:54.702Z,1031.28
2017-01-19T04:07:35.235Z,1031.32
2017-01-19T04:08:15.762Z,1031.31
2017-01-19T04:08:56.297Z,1031.28
2017-01-19T04:09:36.825Z,1031.3
2017-01-19T04:10:17.352Z,1031.28
2017-01-19T04:10:57.878Z,1031.3
2017-01-19T04:11:38.407Z,1031.24
2017-01-19T04:12:18.936Z,1031.3
2017-01-19T04:12:59.461Z,1031.25
2017-01-19T04:13:39.988Z,1031.27
2017-01-19T04:14:20.516Z,1031.29
2017-01-19T04:15:01.052Z,1031.31
2017-01-19T04:15:41.581Z,1031.25
2017-01-19T04:16:22.110Z,1031.25
2017-01-19T04:17:02.638Z,1031.24
2017-01-19T04:17:43.167Z,1031.22
2017-01-19T04:18:23.713Z,1031.24
2017-01-19T04:19:04.227Z,1031.19
2017-01-19T04:19:44.758Z,1031.18
2017-01-19T04:20:25.290Z,1031.21
2017-01-19T04:21:05.821Z,1031.2
2017-01-19T04:21:46.355Z,1031.23
2017-01-19T04:22:26.865Z,1031.2
2017-01-19T04:23:07.407Z,1031.23
2017-01-19T04:23:48.069Z,1031.2
2017-01-19T04:24:28.600Z,1031.19
2017-01-19T04:25:09.126Z,1031.19
2017-01-19T04:25:49.662Z,1031.19
2017-01-19T04:26:30.189Z,1031.2
2017-01-19T04:27:10.711Z,1031.2
2017-01-19T04:27:51.241Z,1031.22
2017-01-19T04:28:31.771Z,1031.22
2017-01-19T04:29:12.300Z,1031.18
2017-01-19T04:29:52.830Z,1031.16
2017-01-19T04:30:33.363Z,1031.21
2017-01-19T04:31:13.894Z,1031.19
2017-01-19T04:31:54.433Z,1031.16
2017-01-19T04:32:34.964Z,1031.19
2017-01-19T04:33:15.484Z,1031.19
2017-01-19T04:33:56.046Z,1031.21
2017-01-19T04:34:36.575Z,1031.16
2017-01-19T04:35:17.115Z,1031.16
2017-01-19T04:35:57.634Z,1031.16
2017-01-19T04:36:38.170Z,1031.14
2017-01-19T04:37:18.701Z,1031.14
2017-01-19T04:37:59.228Z,1031.16
2017-01-19T04:38:39.757Z,1031.12
2017-01-19T04:39:20.291Z,1031.16
2017-01-19T04:40:00.820Z,1031.2
2017-01-19T04:40:41.348Z,1031.19
2017-01-19T04:41:21.860Z,1031.16
2017-01-19T04:42:02.389Z,1031.16
2017-01-19T04:42:42.921Z,1031.19
2017-01-19T04:43:23.466Z,1031.19
2017-01-19T04:44:03.991Z,1031.18
2017-01-19T04:44:44.524Z,1031.18
2017-01-19T04:45:25.061Z,1031.18
2017-01-19T04:46:05.581Z,1031.15
2017-01-19T04:46:46.123Z,1031.18
2017-01-19T04:47:26.735Z,1031.21
2017-01-19T04:48:07.284Z,1031.18
2017-01-19T04:48:47.864Z,1031.16
2017-01-19T04:49:28.526Z,1031.17
2017-01-19T04:50:09.099Z,1031.15
2017-01-19T04:50:49.807Z,1031.16
2017-01-19T04:51:30.340Z,1031.16
2017-01-19T04:52:10.871Z,1031.19
2017-01-19T04:52:51.406Z,1031.12
2017-01-19T04:53:31.939Z,1031.19
2017-01-19T04:54:12.470Z,1031.15
2017-01-19T04:54:52.998Z,1031.14
2017-01-19T04:55:33.530Z,1031.16
2017-01-19T04:56:14.057Z,1031.17
2017-01-19T04:56:54.989Z,1031.14
2017-01-19T04:57:35.513Z,1031.13
2017-01-19T04:58:16.185Z,1031.2
2017-01-19T04:58:56.846Z,1031.19
2017-01-19T04:59:37.381Z,1031.2
2017-01-19T05:00:18.019Z,1031.21
2017-01-19T05:00:58.549Z,1031.25
2017-01-19T05:01:39.077Z,1031.23
2017-01-19T05:02:19.612Z,1031.24
2017-01-19T05:03:00.146Z,1031.28
2017-01-19T05:03:40.669Z,1031.23
2017-01-19T05:04:21.349Z,1031.23
2017-01-19T05:05:01.876Z,1031.25
2017-01-19T05:05:42.661Z,1031.24
2017-01-19T05:06:23.136Z,1031.25
2017-01-19T05:07:03.675Z,1031.22
2017-01-19T05:07:44.624Z,1031.2
2017-01-19T05:08:25.261Z,1031.24
2017-01-19T05:09:05.787Z,1031.27
2017-01-19T05:09:46.321Z,1031.23
2017-01-19T05:10:26.864Z,1031.25
2017-01-19T05:11:07.366Z,1031.23
2017-01-19T05:11:48.224Z,1031.23
2017-01-19T05:12:29.969Z,1031.26
2017-01-19T05:13:10.711Z,1031.23
2017-01-19T05:13:51.621Z,1031.26
2017-01-19T05:14:32.429Z,1031.28
2017-01-19T05:15:13.574Z,1031.28
2017-01-19T05:15:54.107Z,1031.25
2017-01-19T05:16:34.928Z,1031.25
2017-01-19T05:17:15.943Z,1031.23
2017-01-19T05:17:56.672Z,1031.25
2017-01-19T05:18:37.489Z,1031.26
2017-01-19T05:19:18.026Z,1031.29
2017-01-19T05:19:58.557Z,1031.27
2017-01-19T05:20:39.347Z,1031.29
2017-01-19T05:21:19.873Z,1031.3
2017-01-19T05:22:00.415Z,1031.26
2017-01-19T05:22:40.945Z,1031.29
2017-01-19T05:23:21.474Z,1031.29
2017-01-19T05:24:02.004Z,1031.33
2017-01-19T05:24:42.533Z,1031.34
2017-01-19T05:25:23.060Z,1031.29
2017-01-19T05:26:03.607Z,1031.33
2017-01-19T05:26:44.309Z,1031.27
2017-01-19T05:27:24.665Z,1031.24
2017-01-19T05:28:05.197Z,1031.27
2017-01-19T05:28:45.715Z,1031.29
2017-01-19T05:29:26.245Z,1031.26
2017-01-19T05:30:06.778Z,1031.27
2017-01-19T05:30:47.307Z,1031.29
2017-01-19T05:31:28.103Z,1031.27
2017-01-19T05:32:08.638Z,1031.27
2017-01-19T05:32:49.258Z,1031.27
2017-01-19T05:33:29.964Z,1031.25
2017-01-19T05:34:10.530Z,1031.29
2017-01-19T05:34:51.066Z,1031.28
2017-01-19T05:35:31.597Z,1031.27
2017-01-19T05:36:12.133Z,1031.28
2017-01-19T05:36:52.651Z,1031.3
2017-01-19T05:37:34.075Z,1031.29
2017-01-19T05:38:15.588Z,1031.29
2017-01-19T05:38:56.124Z,1031.33
2017-01-19T05:39:36.655Z,1031.33
2017-01-19T05:40:17.189Z,1031.33
2017-01-19T05:40:57.719Z,1031.32
2017-01-19T05:41:38.251Z,1031.3
2017-01-19T05:42:18.776Z,1031.31
2017-01-19T05:42:59.311Z,1031.26
2017-01-19T05:43:39.840Z,1031.28
2017-01-19T05:44:20.349Z,1031.25
2017-01-19T05:45:00.871Z,1031.29
2017-01-19T05:45:41.407Z,1031.3
2017-01-19T05:46:21.939Z,1031.27
2017-01-19T05:47:02.466Z,1031.31
2017-01-19T05:47:42.999Z,1031.26
2017-01-19T05:48:23.532Z,1031.27
2017-01-19T05:49:04.064Z,1031.31
2017-01-19T05:49:44.591Z,1031.24
2017-01-19T05:50:25.113Z,1031.2
2017-01-19T05:51:05.644Z,1031.23
2017-01-19T05:51:46.182Z,1031.21
2017-01-19T05:52:26.877Z,1031.2
2017-01-19T05:53:07.407Z,1031.23
2017-01-19T05:53:47.935Z,1031.23
2017-01-19T05:54:28.470Z,1031.19
2017-01-19T05:55:08.999Z,1031.21
2017-01-19T05:55:49.526Z,1031.2
2017-01-19T05:56:30.057Z,1031.2
2017-01-19T05:57:10.592Z,1031.2
2017-01-19T05:57:51.124Z,1031.23
2017-01-19T05:58:31.658Z,1031.17
2017-01-19T05:59:12.171Z,1031.23
2017-01-19T05:59:52.711Z,1031.22
2017-01-19T06:00:33.246Z,1031.15
2017-01-19T06:01:13.779Z,1031.22
2017-01-19T06:01:54.308Z,1031.17
2017-01-19T06:02:34.836Z,1031.15
2017-01-19T06:03:15.373Z,1031.14
2017-01-19T06:03:55.901Z,1031.15
2017-01-19T06:04:36.431Z,1031.14
2017-01-19T06:05:16.953Z,1031.14
2017-01-19T06:05:57.489Z,1031.11
2017-01-19T06:06:38.013Z,1031.12
2017-01-19T06:07:18.543Z,1031.1
2017-01-19T06:07:59.070Z,1031.12
2017-01-19T06:08:39.598Z,1031.07
2017-01-19T06:09:20.122Z,1031.08
2017-01-19T06:10:00.649Z,1031.1
2017-01-19T06:10:41.181Z,1031.1
2017-01-19T06:11:21.715Z,1031.09
2017-01-19T06:12:02.239Z,1031.11
2017-01-19T06:12:42.766Z,1031.07
2017-01-19T06:13:23.297Z,1031.1
2017-01-19T06:14:03.836Z,1031.11
2017-01-19T06:14:44.375Z,1031.08
2017-01-19T06:15:24.912Z,1031.09
2017-01-19T06:16:05.443Z,1031.1
2017-01-19T06:16:45.989Z,1031.09
2017-01-19T06:17:26.532Z,1031.08
2017-01-19T06:18:07.074Z,1031.11
2017-01-19T06:18:47.601Z,1031.09
2017-01-19T06:19:28.140Z,1031.12
2017-01-19T06:20:08.671Z,1031.1
2017-01-19T06:20:49.205Z,1031.14
2017-01-19T06:21:29.776Z,1031.17
2017-01-19T06:22:10.301Z,1031.16
2017-01-19T06:24:29.621Z,1031.15
2017-01-19T06:25:10.158Z,1031.12
2017-01-19T06:25:50.672Z,1031.1
2017-01-19T06:26:31.196Z,1031.14
2017-01-19T06:27:11.724Z,1031.17
2017-01-19T06:27:52.274Z,1031.12
2017-01-19T06:28:32.847Z,1031.11
2017-01-19T06:29:13.376Z,1031.11
2017-01-19T06:29:53.904Z,1031.13
2017-01-19T06:30:34.453Z,1031.17
2017-01-19T06:31:14.969Z,1031.16
2017-01-19T06:31:55.497Z,1031.2
2017-01-19T06:32:36.026Z,1031.2
2017-01-19T06:33:16.560Z,1031.17
2017-01-19T06:33:57.089Z,1031.21
2017-01-19T06:34:37.600Z,1031.18
2017-01-19T06:35:18.132Z,1031.18
2017-01-19T06:35:58.665Z,1031.17
2017-01-19T06:36:39.194Z,1031.18
2017-01-19T06:37:19.705Z,1031.2
2017-01-19T06:38:00.231Z,1031.22
2017-01-19T06:38:40.782Z,1031.22
2017-01-19T06:39:21.310Z,1031.23
2017-01-19T06:40:01.842Z,1031.21
2017-01-19T06:40:42.369Z,1031.24
2017-01-19T06:41:22.901Z,1031.25
2017-01-19T06:42:03.455Z,1031.23
2017-01-19T06:42:43.983Z,1031.28
2017-01-19T06:43:24.516Z,1031.31
2017-01-19T06:44:05.044Z,1031.31
2017-01-19T06:44:45.572Z,1031.32
2017-01-19T06:45:26.096Z,1031.31
2017-01-19T06:46:06.631Z,1031.35
2017-01-19T06:46:47.160Z,1031.34
2017-01-19T06:47:27.662Z,1031.32
2017-01-19T06:48:08.193Z,1031.35
2017-01-19T06:48:48.722Z,1031.36
2017-01-19T06:49:29.273Z,1031.38
2017-01-19T06:50:09.802Z,1031.39
2017-01-19T06:50:50.329Z,1031.43
2017-01-19T06:51:30.860Z,1031.37
2017-01-19T06:52:11.386Z,1031.4
2017-01-19T06:52:51.923Z,1031.39
2017-01-19T06:53:32.454Z,1031.42
2017-01-19T06:54:12.978Z,1031.4
2017-01-19T06:54:53.511Z,1031.42
2017-01-19T06:55:34.035Z,1031.43
2017-01-19T06:56:14.570Z,1031.41
2017-01-19T06:56:55.105Z,1031.39
2017-01-19T06:57:35.630Z,1031.43
2017-01-19T06:58:16.161Z,1031.4
2017-01-19T06:58:56.687Z,1031.45
2017-01-19T06:59:37.196Z,1031.43
2017-01-19T07:00:17.714Z,1031.46
2017-01-19T07:00:58.248Z,1031.43
2017-01-19T07:01:38.782Z,1031.41
2017-01-19T07:02:19.300Z,1031.43
2017-01-19T07:02:59.824Z,1031.42
2017-01-19T07:03:40.345Z,1031.43
2017-01-19T07:04:20.878Z,1031.43
2017-01-19T07:05:01.387Z,1031.46
2017-01-19T07:05:41.914Z,1031.43
2017-01-19T07:06:22.423Z,1031.41
2017-01-19T07:07:02.948Z,1031.42
2017-01-19T07:07:43.471Z,1031.4
2017-01-19T07:08:24.000Z,1031.38
2017-01-19T07:09:04.528Z,1031.41
2017-01-19T07:09:45.033Z,1031.39
2017-01-19T07:10:25.566Z,1031.4
2017-01-19T07:11:06.107Z,1031.38
2017-01-19T07:11:46.629Z,1031.38
2017-01-19T07:12:27.130Z,1031.38
2017-01-19T07:13:07.665Z,1031.42
2017-01-19T07:13:48.183Z,1031.41
2017-01-19T07:14:28.713Z,1031.39
2017-01-19T07:15:09.236Z,1031.39
2017-01-19T07:15:49.759Z,1031.39
2017-01-19T07:16:30.290Z,1031.38
2017-01-19T07:17:10.818Z,1031.4
2017-01-19T07:17:51.341Z,1031.37
2017-01-19T07:18:31.869Z,1031.37
2017-01-19T07:19:12.399Z,1031.35
2017-01-19T07:19:52.930Z,1031.39
2017-01-19T07:20:33.427Z,1031.42
2017-01-19T07:21:13.957Z,1031.37
2017-01-19T07:21:54.489Z,1031.39
2017-01-19T07:22:34.994Z,1031.41
2017-01-19T07:23:15.517Z,1031.42
2017-01-19T07:23:56.049Z,1031.4
2017-01-19T07:24:36.579Z,1031.43
2017-01-19T07:25:17.109Z,1031.42
2017-01-19T07:25:57.638Z,1031.42
2017-01-19T07:26:38.159Z,1031.41
2017-01-19T07:27:18.690Z,1031.43
2017-01-19T07:27:59.230Z,1031.44
2017-01-19T07:28:39.766Z,1031.4
2017-01-19T07:29:20.283Z,1031.44
2017-01-19T07:30:00.808Z,1031.43
2017-01-19T07:30:41.338Z,1031.39
2017-01-19T07:31:21.870Z,1031.44
2017-01-19T07:32:02.379Z,1031.43
2017-01-19T07:32:42.947Z,1031.44
2017-01-19T07:33:23.475Z,1031.42
2017-01-19T07:34:04.004Z,1031.46
2017-01-19T07:34:44.534Z,1031.44
2017-01-19T07:35:25.096Z,1031.48
2017-01-19T07:36:05.633Z,1031.45
2017-01-19T07:36:46.151Z,1031.46
2017-01-19T07:37:26.675Z,1031.45
2017-01-19T07:38:07.201Z,1031.47
2017-01-19T07:38:47.736Z,1031.42
2017-01-19T07:39:28.253Z,1031.44
2017-01-19T07:40:08.780Z,1031.46
2017-01-19T07:40:49.302Z,1031.48
2017-01-19T07:41:29.835Z,1031.47
2017-01-19T07:42:10.348Z,1031.45
2017-01-19T07:42:50.900Z,1031.48
2017-01-19T07:43:31.423Z,1031.46
2017-01-19T07:44:11.950Z,1031.45
2017-01-19T07:44:52.485Z,1031.45
2017-01-19T07:45:33.003Z,1031.42
2017-01-19T07:46:13.518Z,1031.46
2017-01-19T07:46:54.049Z,1031.5
2017-01-19T07:47:34.590Z,1031.48
2017-01-19T07:48:15.121Z,1031.49
2017-01-19T07:48:55.647Z,1031.48
2017-01-19T07:49:36.164Z,1031.5
2017-01-19T07:50:16.695Z,1031.55
2017-01-19T07:50:57.301Z,1031.58
2017-01-19T07:51:37.763Z,1031.52
2017-01-19T07:52:18.293Z,1031.5
2017-01-19T07:52:58.816Z,1031.52
2017-01-19T07:53:39.348Z,1031.51
2017-01-19T07:54:19.867Z,1031.51
2017-01-19T07:55:00.391Z,1031.55
2017-01-19T07:55:40.921Z,1031.51
2017-01-19T07:56:21.988Z,1031.53
2017-01-19T07:57:02.511Z,1031.54
2017-01-19T07:57:43.008Z,1031.61
2017-01-19T07:58:23.514Z,1031.59
2017-01-19T07:59:04.061Z,1031.59
2017-01-19T07:59:44.539Z,1031.63
2017-01-19T08:00:25.123Z,1031.63
2017-01-19T08:01:05.640Z,1031.57
2017-01-19T08:01:46.179Z,1031.61
2017-01-19T08:02:26.700Z,1031.59
2017-01-19T08:03:07.204Z,1031.61
2017-01-19T08:03:47.741Z,1031.63
2017-01-19T08:04:28.276Z,1031.66
2017-01-19T08:05:08.827Z,1031.67
2017-01-19T08:05:49.360Z,1031.65
2017-01-19T08:06:29.888Z,1031.67
2017-01-19T08:07:10.406Z,1031.68
2017-01-19T08:07:50.939Z,1031.66
2017-01-19T08:08:31.469Z,1031.67
2017-01-19T08:09:11.999Z,1031.66
2017-01-19T08:09:52.527Z,1031.65
2017-01-19T08:10:33.069Z,1031.68
2017-01-19T08:11:13.595Z,1031.64
2017-01-19T08:11:54.126Z,1031.63
2017-01-19T08:12:34.659Z,1031.66
2017-01-19T08:13:15.194Z,1031.68
2017-01-19T08:13:55.727Z,1031.69
2017-01-19T08:14:36.256Z,1031.67
2017-01-19T08:15:16.783Z,1031.66
2017-01-19T08:15:57.309Z,1031.64
2017-01-19T08:16:37.826Z,1031.67
2017-01-19T08:17:18.354Z,1031.68
2017-01-19T08:17:58.883Z,1031.69
2017-01-19T08:18:39.423Z,1031.68
2017-01-19T08:19:19.951Z,1031.68
2017-01-19T08:20:00.471Z,1031.72
2017-01-19T08:20:40.992Z,1031.7
2017-01-19T08:21:21.521Z,1031.72
2017-01-19T08:22:02.052Z,1031.73
2017-01-19T08:22:42.576Z,1031.75
2017-01-19T08:23:23.098Z,1031.72
2017-01-19T08:24:03.632Z,1031.76
2017-01-19T08:24:44.173Z,1031.71
2017-01-19T08:25:24.706Z,1031.72
2017-01-19T08:26:05.233Z,1031.7
2017-01-19T08:26:45.763Z,1031.7
2017-01-19T08:27:26.299Z,1031.72
2017-01-19T08:28:06.830Z,1031.71
2017-01-19T08:28:47.356Z,1031.71
2017-01-19T08:29:27.882Z,1031.69
2017-01-19T08:30:08.397Z,1031.76
2017-01-19T08:30:48.943Z,1031.73
2017-01-19T08:31:29.474Z,1031.77
2017-01-19T08:32:10.003Z,1031.77
2017-01-19T08:32:50.531Z,1031.78
2017-01-19T08:33:31.067Z,1031.74
2017-01-19T08:34:11.603Z,1031.76
2017-01-19T08:34:52.135Z,1031.73
2017-01-19T08:35:32.670Z,1031.73
2017-01-19T08:36:13.194Z,1031.73
2017-01-19T08:36:53.736Z,1031.73
2017-01-19T08:37:34.265Z,1031.78
2017-01-19T08:38:14.788Z,1031.77
2017-01-19T08:38:55.322Z,1031.77
2017-01-19T08:39:35.837Z,1031.76
2017-01-19T08:40:16.368Z,1031.76
2017-01-19T08:40:56.896Z,1031.76
2017-01-19T08:41:37.402Z,1031.73
2017-01-19T08:42:17.935Z,1031.74
2017-01-19T08:42:58.461Z,1031.76
2017-01-19T08:43:38.998Z,1031.74
2017-01-19T08:44:19.524Z,1031.76
2017-01-19T08:45:00.041Z,1031.77
2017-01-19T08:45:40.572Z,1031.79
2017-01-19T08:46:21.104Z,1031.81
2017-01-19T08:47:01.626Z,1031.81
2017-01-19T08:47:42.169Z,1031.82
2017-01-19T08:48:22.693Z,1031.82
2017-01-19T08:49:03.222Z,1031.79